Time;durP1;ratioP1;P1;durP2;ratioP2;P2;SDS_P1;SDS_P2;PMS_P1;PMS_P2;Temp;Humidity;BMP_temperature;BMP_pressure;BME280_temperature;BME280_humidity;BME280_pressure;Samples;Min_cycle;Max_cycle;Signal;HPM_P1;HPM_P2
2022/12/28 00:12:06;;;;;;;10.83;9.27;;;5.60;88.80;;;;;;4899274;29;20236;-93
2022/12/28 00:15:03;;;;;;;12.07;10.93;;;5.60;88.70;;;;;;5028057;22;20229;-93
2022/12/28 00:17:44;;;;;;;13.00;11.30;;;5.60;88.70;;;;;;5018826;28;20188;-94
2022/12/28 00:45:21;;;;;;;10.80;9.57;;;5.50;87.80;;;;;;5046982;22;21453;-93
2022/12/28 01:05:27;;;;;;;18.77;8.37;;;5.40;86.90;;;;;;5063877;22;20236;-94
2022/12/28 01:07:53;;;;;;;8.97;8.27;;;5.40;87.00;;;;;;5023856;28;20204;-94
2022/12/28 01:10:18;;;;;;;9.43;8.43;;;5.30;86.90;;;;;;5021859;28;20184;-93
2022/12/28 01:12:47;;;;;;;10.10;9.00;;;5.30;87.00;;;;;;5022170;28;20216;-93
2022/12/28 01:15:13;;;;;;;11.90;9.70;;;5.30;86.90;;;;;;5021936;28;20286;-93
2022/12/28 01:17:41;;;;;;;8.90;8.20;;;5.30;86.70;;;;;;5022160;28;20181;-94
2022/12/28 01:20:07;;;;;;;8.60;7.93;;;5.30;86.70;;;;;;5021145;28;20173;-93
2022/12/28 01:22:40;;;;;;;12.10;8.10;;;5.30;86.70;;;;;;5021097;28;20180;-93
2022/12/28 01:25:06;;;;;;;8.93;8.23;;;5.30;86.50;;;;;;5020217;28;20193;-93
2022/12/28 01:27:40;;;;;;;10.13;8.30;;;5.30;86.50;;;;;;5021013;28;20191;-93
2022/12/28 01:30:13;;;;;;;12.43;9.03;;;5.30;86.80;;;;;;5020472;28;20278;-93
2022/12/28 01:32:45;;;;;;;8.70;8.10;;;5.30;86.60;;;;;;5020698;28;20180;-93
2022/12/28 01:35:11;;;;;;;9.10;8.20;;;5.30;86.60;;;;;;5019539;28;20330;-93
2022/12/28 01:37:36;;;;;;;9.00;8.10;;;5.30;86.60;;;;;;5019667;28;20812;-93
2022/12/28 01:40:02;;;;;;;9.90;8.27;;;5.30;86.70;;;;;;5021439;28;20178;-93
2022/12/28 01:42:28;;;;;;;10.60;7.90;;;5.30;86.60;;;;;;5021732;28;20249;-93
2022/12/28 01:44:53;;;;;;;8.30;7.77;;;5.20;87.40;;;;;;5020718;28;20230;-93
2022/12/28 01:47:33;;;;;;;12.53;9.63;;;5.20;87.40;;;;;;5021314;28;20182;-94
2022/12/28 01:50:10;;;;;;;9.80;8.80;;;5.20;87.60;;;;;;5019859;28;20266;-94
2022/12/28 01:52:48;;;;;;;9.10;8.33;;;5.10;87.70;;;;;;5022562;28;20234;-94
2022/12/28 01:55:21;;;;;;;9.00;8.10;;;5.10;88.20;;;;;;5021895;28;20276;-94
2022/12/28 01:57:52;;;;;;;11.70;8.30;;;5.00;88.40;;;;;;5021733;28;20714;-94
2022/12/28 02:00:18;;;;;;;9.40;8.47;;;5.00;88.50;;;;;;5024325;28;20168;-93
2022/12/28 02:03:13;;;;;;;8.67;7.93;;;5.00;88.70;;;;;;5026638;28;20192;-94
2022/12/28 02:05:43;;;;;;;9.70;8.83;;;5.00;89.00;;;;;;5023980;28;20220;-94
2022/12/28 02:08:21;;;;;;;14.80;9.33;;;5.00;88.90;;;;;;5022671;28;20169;-94
2022/12/28 02:10:51;;;;;;;10.63;8.73;;;4.90;89.20;;;;;;5021696;28;20254;-93
2022/12/28 02:13:21;;;;;;;9.27;8.33;;;4.90;89.50;;;;;;5021651;28;20189;-93
2022/12/28 02:15:47;;;;;;;7.90;7.20;;;4.80;89.70;;;;;;5020828;28;20274;-93
2022/12/28 02:18:15;;;;;;;10.07;9.03;;;4.80;89.80;;;;;;5020039;28;20179;-94
2022/12/28 02:21:02;;;;;;;9.40;8.60;;;4.80;90.00;;;;;;5022338;28;20333;-94
2022/12/28 02:23:44;;;;;;;8.97;8.20;;;4.80;90.20;;;;;;5022060;28;20191;-93
2022/12/28 02:26:33;;;;;;;11.97;8.10;;;4.80;90.40;;;;;;5021883;28;20659;-93
2022/12/28 02:29:41;;;;;;;8.60;7.90;;;4.70;90.70;;;;;;5023531;28;20206;-93
2022/12/28 02:32:48;;;;;;;8.30;7.60;;;4.80;90.90;;;;;;5030704;28;20220;-93
2022/12/28 04:06:02;;;;;;;12.73;10.10;;;4.80;92.90;;;;;;5006626;28;20208;-94
2022/12/28 04:08:35;;;;;;;11.10;9.63;;;4.70;93.00;;;;;;4992211;28;20172;-94
2022/12/28 04:11:53;;;;;;;12.07;10.13;;;4.70;93.00;;;;;;4994916;28;20289;-94
2022/12/28 04:17:37;;;;;;;12.10;10.53;;;4.70;93.10;;;;;;4969453;28;20189;-94
2022/12/28 04:20:34;;;;;;;13.03;10.80;;;4.80;93.10;;;;;;4994623;28;20176;-94
2022/12/28 04:26:27;;;;;;;11.30;10.50;;;4.80;93.20;;;;;;5008873;28;20213;-93
2022/12/28 04:28:53;;;;;;;10.33;9.40;;;4.70;93.30;;;;;;4926965;29;20186;-93
2022/12/28 04:31:42;;;;;;;10.37;9.67;;;4.70;93.40;;;;;;4995672;28;20221;-93
2022/12/28 04:34:08;;;;;;;14.40;11.70;;;4.80;93.50;;;;;;4992001;28;20173;-93
2022/12/28 04:36:34;;;;;;;13.83;10.17;;;4.70;93.60;;;;;;4991777;28;20185;-93
2022/12/28 04:39:06;;;;;;;10.53;9.73;;;4.80;93.70;;;;;;4990498;28;20189;-93
2022/12/28 04:41:32;;;;;;;12.93;10.63;;;4.70;93.80;;;;;;4989790;28;20272;-94
2022/12/28 04:44:10;;;;;;;12.13;11.20;;;4.70;94.00;;;;;;4992983;28;20188;-93
2022/12/28 04:46:49;;;;;;;12.93;11.40;;;4.70;94.10;;;;;;4991699;28;20174;-93
2022/12/28 04:49:46;;;;;;;11.37;10.57;;;4.70;94.30;;;;;;4991687;28;20177;-93
2022/12/28 04:52:35;;;;;;;12.07;11.27;;;4.70;94.40;;;;;;4994220;28;20211;-93
2022/12/28 04:56:05;;;;;;;13.50;12.47;;;4.70;94.60;;;;;;4987369;28;20215;-93
2022/12/28 04:59:24;;;;;;;13.53;12.43;;;4.70;94.80;;;;;;4861866;29;20197;-93
2022/12/28 05:02:12;;;;;;;15.27;13.77;;;4.80;94.90;;;;;;4830391;29;20182;-95
2022/12/28 05:05:13;;;;;;;;;;;;;;;;;;;;;
2022/12/28 09:43:44;;;;;;;71.67;66.87;;;7.50;95.90;;;;;;5014644;28;20202;-92
2022/12/28 09:46:10;;;;;;;71.83;67.17;;;7.50;95.80;;;;;;5522898;22;20232;-92
2022/12/28 09:48:48;;;;;;;69.70;65.10;;;7.50;95.80;;;;;;5040176;28;20193;-92
2022/12/28 09:51:14;;;;;;;77.17;71.90;;;7.60;95.80;;;;;;5040217;28;20185;-91
2022/12/28 09:56:46;;;;;;;71.40;66.90;;;7.60;95.80;;;;;;5356796;22;20232;-90
2022/12/28 09:59:22;;;;;;;81.47;75.87;;;7.70;95.80;;;;;;5025749;28;20186;-91
2022/12/28 10:01:57;;;;;;;77.53;72.63;;;7.70;95.70;;;;;;5023893;28;20169;-94
2022/12/28 10:04:40;;;;;;;71.60;66.90;;;7.70;95.60;;;;;;5029760;28;20208;-92
2022/12/28 10:11:16;;;;;;;63.17;59.37;;;7.80;95.70;;;;;;5025608;28;20165;-95
2022/12/28 10:22:24;;;;;;;72.30;67.53;;;7.80;95.80;;;;;;5184188;22;20252;-93
2022/12/28 10:24:50;;;;;;;68.90;64.57;;;7.90;95.80;;;;;;5103956;22;20236;-94
2022/12/28 10:27:22;;;;;;;74.07;69.20;;;8.00;95.80;;;;;;5159257;22;20232;-92
2022/12/28 10:29:53;;;;;;;68.77;64.40;;;7.90;95.80;;;;;;5034195;28;20177;-95
2022/12/28 10:32:19;;;;;;;70.57;66.20;;;8.00;95.80;;;;;;5028958;28;20205;-91
2022/12/28 10:35:00;;;;;;;68.67;64.37;;;8.00;95.80;;;;;;5028722;28;20633;-91
2022/12/28 10:37:29;;;;;;;75.10;70.50;;;8.10;95.80;;;;;;5026544;28;20184;-92
2022/12/28 10:40:26;;;;;;;71.70;67.27;;;8.20;95.70;;;;;;5034719;28;20241;-92
2022/12/28 10:59:13;;;;;;;77.20;72.63;;;8.30;95.00;;;;;;4988072;28;20230;-91
2022/12/28 11:02:34;;;;;;;85.00;79.73;;;8.20;95.00;;;;;;4979623;28;20186;-92
2022/12/28 11:23:00;;;;;;;81.23;76.23;;;8.30;95.30;;;;;;5072206;22;20769;-91
2022/12/28 11:46:21;;;;;;;82.17;76.97;;;8.30;95.80;;;;;;3666907;22;20719;-93
2022/12/28 11:53:14;;;;;;;;;;;;;;;;;;;;;
2022/12/28 12:02:25;;;;;;;76.77;72.03;;;8.30;96.00;;;;;;5091154;22;20587;-93
2022/12/28 12:28:16;;;;;;;83.07;78.10;;;8.60;95.80;;;;;;4993498;28;20637;-92
2022/12/28 12:30:43;;;;;;;78.27;73.57;;;8.50;95.80;;;;;;4978047;28;20177;-90
2022/12/28 12:33:21;;;;;;;81.57;76.67;;;8.60;95.70;;;;;;4977271;28;20198;-92
2022/12/28 12:36:15;;;;;;;80.63;75.90;;;8.60;95.80;;;;;;4978791;28;20202;-92
2022/12/28 12:39:09;;;;;;;82.80;77.90;;;8.60;95.80;;;;;;4983984;28;20174;-93
2022/12/28 12:42:20;;;;;;;82.43;77.43;;;8.60;95.90;;;;;;4986399;28;20178;-91
2022/12/28 13:07:43;;;;;;;86.93;81.63;;;8.60;95.70;;;;;;5031549;22;20240;-91
2022/12/28 13:10:42;;;;;;;87.57;82.37;;;8.60;95.70;;;;;;5018800;28;20180;-91
2022/12/28 13:13:42;;;;;;;83.70;78.70;;;8.60;95.70;;;;;;5020078;28;20219;-91
2022/12/28 13:16:26;;;;;;;82.47;77.40;;;8.60;95.70;;;;;;5021700;28;20197;-91
2022/12/28 13:19:05;;;;;;;78.37;73.63;;;8.60;95.80;;;;;;5021846;28;20166;-91
2022/12/28 13:22:06;;;;;;;86.80;81.70;;;8.60;95.80;;;;;;5021137;28;20244;-91
2022/12/28 13:24:49;;;;;;;89.50;84.00;;;8.60;95.90;;;;;;4964628;28;20205;-91
2022/12/28 13:27:29;;;;;;;84.10;78.73;;;8.60;96.00;;;;;;4967395;28;20191;-91
2022/12/28 13:33:36;;;;;;;;;;;;;;;;;;;;;
2022/12/28 13:36:28;;;;;;;92.50;86.87;;;8.60;96.30;;;;;;4909795;29;20295;-92
2022/12/28 13:39:25;;;;;;;87.83;82.37;;;8.50;96.20;;;;;;4994827;28;20175;-91
2022/12/28 13:59:35;;;;;;;;;;;;;;;;;;;;;
2022/12/28 14:37:42;;;;;;;90.23;84.63;;;8.40;96.30;;;;;;4675944;22;20242;-93
2022/12/28 14:40:31;;;;;;;89.63;84.10;;;8.40;96.40;;;;;;5029306;28;20239;-91
2022/12/28 15:22:03;;;;;;;70.17;66.10;;;8.30;96.80;;;;;;3865990;22;20275;-92
2022/12/28 15:27:04;;;;;;;72.33;68.13;;;8.30;96.90;;;;;;5024124;22;20695;-93
2022/12/28 15:29:36;;;;;;;69.87;65.87;;;8.30;96.80;;;;;;5020005;28;20188;-93
2022/12/28 15:32:01;;;;;;;74.23;69.93;;;8.30;96.80;;;;;;5029093;28;20304;-93
2022/12/28 15:34:27;;;;;;;68.03;64.23;;;8.30;96.80;;;;;;5028577;28;20200;-93
2022/12/28 15:36:53;;;;;;;69.63;65.63;;;8.30;96.80;;;;;;5027606;28;20260;-93
2022/12/28 15:39:18;;;;;;;68.17;64.27;;;8.30;96.80;;;;;;5033854;28;20647;-93
2022/12/28 15:41:50;;;;;;;66.07;62.27;;;8.30;96.80;;;;;;5032589;28;20168;-93
2022/12/28 16:02:39;;;;;;;67.73;63.70;;;8.30;96.70;;;;;;5178254;22;20244;-91
2022/12/28 16:05:12;;;;;;;68.63;64.63;;;8.30;96.60;;;;;;5037603;28;20197;-91
2022/12/28 16:07:41;;;;;;;70.97;66.97;;;8.30;96.60;;;;;;5038262;28;20185;-93
2022/12/28 16:10:15;;;;;;;75.43;71.13;;;8.40;96.60;;;;;;5146185;22;20232;-92
2022/12/28 16:12:41;;;;;;;77.80;73.40;;;8.40;96.50;;;;;;5093957;22;20230;-92
2022/12/28 16:15:07;;;;;;;73.47;69.33;;;8.40;96.10;;;;;;5034798;28;20212;-92
2022/12/28 16:17:33;;;;;;;76.33;72.03;;;8.40;95.80;;;;;;5035464;28;20203;-92
2022/12/28 16:20:03;;;;;;;79.27;74.77;;;8.50;95.70;;;;;;5034567;28;20212;-92
2022/12/28 16:22:28;;;;;;;77.83;73.47;;;8.50;95.50;;;;;;5144460;22;20224;-92
2022/12/28 16:24:57;;;;;;;83.50;78.70;;;8.40;95.40;;;;;;5035692;28;20232;-92
2022/12/28 16:27:23;;;;;;;77.40;72.97;;;8.50;95.20;;;;;;5040228;28;20233;-92
2022/12/28 16:29:55;;;;;;;78.43;73.83;;;8.40;95.00;;;;;;5036796;28;20204;-92
2022/12/28 16:32:21;;;;;;;83.83;79.17;;;8.40;95.00;;;;;;5179217;22;20229;-93
2022/12/28 16:45:08;;;;;;;76.73;72.43;;;8.40;94.80;;;;;;3129857;22;20243;-94
2022/12/28 16:47:37;;;;;;;82.23;77.73;;;8.40;94.70;;;;;;5039159;28;20170;-94
2022/12/28 19:17:36;;;;;;;54.93;51.57;;;8.00;92.40;;;;;;4997920;28;20214;-93
2022/12/28 19:20:03;;;;;;;53.77;50.63;;;7.90;92.60;;;;;;4980602;28;20178;-93
2022/12/28 19:22:29;;;;;;;55.00;51.43;;;7.90;92.60;;;;;;4965397;28;20201;-94
2022/12/28 19:24:54;;;;;;;57.17;53.67;;;7.90;92.60;;;;;;4982397;28;20198;-93
2022/12/28 19:27:28;;;;;;;50.47;47.23;;;7.90;92.70;;;;;;4984444;28;20184;-94
2022/12/28 19:29:54;;;;;;;57.60;54.20;;;7.90;92.60;;;;;;4990774;28;20177;-93
2022/12/28 19:32:25;;;;;;;56.97;53.63;;;7.80;92.80;;;;;;4985306;28;20197;-93
2022/12/28 19:34:53;;;;;;;60.13;56.67;;;7.80;93.00;;;;;;4972230;28;20672;-94
2022/12/28 19:37:38;;;;;;;59.33;55.73;;;7.80;93.00;;;;;;4986438;28;20269;-94
2022/12/28 19:40:21;;;;;;;61.63;57.53;;;7.80;92.90;;;;;;4991747;28;20194;-94
2022/12/28 19:50:45;;;;;;;74.77;70.30;;;7.70;93.20;;;;;;5058972;22;20319;-92
2022/12/28 20:48:17;;;;;;;71.03;66.63;;;7.60;93.90;;;;;;5008008;28;20249;-91
2022/12/28 20:50:42;;;;;;;72.27;68.13;;;7.60;94.00;;;;;;4987950;28;20206;-91
2022/12/28 20:53:14;;;;;;;74.57;70.13;;;7.60;94.00;;;;;;4994169;28;20202;-92
2022/12/28 20:55:49;;;;;;;80.90;76.00;;;7.60;94.10;;;;;;4991273;28;20210;-91
2022/12/28 21:07:49;;;;;;;85.37;80.20;;;7.60;94.20;;;;;;5046904;22;20236;-93
2022/12/28 21:14:24;;;;;;;;;;;;;;;;;;;;;
2022/12/28 21:22:07;;;;;;;82.40;77.17;;;7.70;94.20;;;;;;5575076;22;20229;-93
2022/12/28 21:30:16;;;;;;;91.23;85.97;;;7.60;94.30;;;;;;5871076;22;20240;-92
2022/12/28 22:12:33;;;;;;;107.23;100.93;;;7.70;94.90;;;;;;4986533;28;20218;-93
2022/12/28 22:13:23;;;;;;;98.93;93.30;;;7.70;95.00;;;;;;4989077;28;20237;-93
2022/12/28 22:16:29;;;;;;;99.20;93.70;;;7.70;95.10;;;;;;4991051;28;20582;-93
2022/12/28 22:19:03;;;;;;;95.60;90.10;;;7.70;95.10;;;;;;4947962;28;20195;-94
2022/12/28 22:21:31;;;;;;;101.67;96.03;;;7.70;95.20;;;;;;4947456;29;20171;-93
2022/12/28 22:24:06;;;;;;;103.67;97.67;;;7.70;95.30;;;;;;4978797;28;20183;-94
2022/12/28 22:26:37;;;;;;;105.43;99.50;;;7.70;95.40;;;;;;4983838;28;20168;-93
2022/12/28 22:29:03;;;;;;;86.37;81.57;;;7.70;95.40;;;;;;4979752;28;20186;-92
2022/12/28 22:31:29;;;;;;;81.90;77.20;;;7.70;95.40;;;;;;4984975;28;20178;-92
2022/12/28 22:33:55;;;;;;;92.23;87.03;;;7.70;95.50;;;;;;4982409;28;20653;-92
2022/12/28 22:36:20;;;;;;;75.97;71.60;;;7.70;95.60;;;;;;4980077;28;20190;-92
2022/12/28 22:38:46;;;;;;;83.73;78.77;;;7.70;95.60;;;;;;4977714;28;20657;-92
2022/12/28 22:41:12;;;;;;;82.93;78.33;;;7.70;95.70;;;;;;4980731;28;20236;-91
2022/12/28 22:43:37;;;;;;;87.60;82.27;;;7.70;95.70;;;;;;4983753;28;20194;-92
2022/12/28 22:46:14;;;;;;;93.17;87.97;;;7.70;95.80;;;;;;4986188;28;20206;-93
2022/12/28 22:48:39;;;;;;;94.17;88.80;;;7.70;95.80;;;;;;4981067;28;20644;-92
2022/12/28 22:51:11;;;;;;;95.40;90.10;;;7.70;95.90;;;;;;4987500;28;20209;-92
2022/12/28 22:53:38;;;;;;;95.90;90.50;;;7.80;95.90;;;;;;4981705;28;20198;-92
2022/12/28 22:56:08;;;;;;;89.27;84.27;;;7.80;95.90;;;;;;4977257;28;20273;-93
2022/12/28 22:58:34;;;;;;;87.20;82.00;;;7.70;95.90;;;;;;4981073;28;20214;-92
2022/12/28 23:01:04;;;;;;;99.03;93.43;;;7.80;95.90;;;;;;4975613;28;20182;-92
2022/12/28 23:03:36;;;;;;;93.50;88.10;;;7.70;95.90;;;;;;4983899;28;20182;-93
2022/12/28 23:06:01;;;;;;;94.10;88.80;;;7.80;95.90;;;;;;4990042;28;20221;-93
2022/12/28 23:08:30;;;;;;;95.80;90.40;;;7.80;95.80;;;;;;4992469;28;20218;-93
2022/12/28 23:11:01;;;;;;;93.87;88.37;;;7.80;95.80;;;;;;4991247;28;20259;-93
2022/12/28 23:17:32;;;;;;;96.57;90.87;;;7.80;95.70;;;;;;4989625;28;20194;-93
2022/12/28 23:28:53;;;;;;;102.63;96.90;;;8.00;95.70;;;;;;4998869;28;20173;-93
2022/12/28 23:31:54;;;;;;;107.47;101.27;;;8.00;95.60;;;;;;4999152;28;20178;-94
2022/12/28 23:40:02;;;;;;;100.47;94.87;;;8.10;95.60;;;;;;5198526;22;20691;-93
2022/12/28 23:42:31;;;;;;;104.93;98.93;;;8.20;95.60;;;;;;5002900;28;20191;-93
2022/12/28 23:47:30;;;;;;;110.97;104.70;;;8.20;95.50;;;;;;4977715;28;20677;-92
2022/12/28 23:49:56;;;;;;;98.80;93.17;;;8.20;95.50;;;;;;4961815;28;20221;-93
2022/12/28 23:52:24;;;;;;;109.77;103.57;;;8.20;95.40;;;;;;4964090;28;20190;-93
